sensor_id;sensor_type;location;lat;lon;timestamp;pressure;altitude;pressure_sealevel;temperature;humidity
84032;BME280;74113;46.556;24.570;2024-01-06T00:01:24;97706.50;;;2.49;72.13
84032;BME280;74113;46.556;24.570;2024-01-06T00:03:53;97703.25;;;2.49;71.93
84032;BME280;74113;46.556;24.570;2024-01-06T00:06:21;97702.23;;;2.48;72.12
84032;BME280;74113;46.556;24.570;2024-01-06T00:08:50;97699.05;;;2.44;72.04
84032;BME280;74113;46.556;24.570;2024-01-06T00:11:23;97695.00;;;2.41;72.14
84032;BME280;74113;46.556;24.570;2024-01-06T00:13:51;97697.77;;;2.38;71.92
84032;BME280;74113;46.556;24.570;2024-01-06T00:16:20;97708.42;;;2.36;72.06
84032;BME280;74113;46.556;24.570;2024-01-06T00:18:49;97706.92;;;2.33;72.22
84032;BME280;74113;46.556;24.570;2024-01-06T00:21:18;97707.84;;;2.29;72.20
84032;BME280;74113;46.556;24.570;2024-01-06T00:23:46;97709.45;;;2.25;72.29
84032;BME280;74113;46.556;24.570;2024-01-06T00:26:15;97702.13;;;2.21;72.48
84032;BME280;74113;46.556;24.570;2024-01-06T00:28:44;97704.04;;;2.20;72.41
84032;BME280;74113;46.556;24.570;2024-01-06T00:31:12;97705.42;;;2.18;72.38
84032;BME280;74113;46.556;24.570;2024-01-06T00:33:41;97708.71;;;2.17;72.31
84032;BME280;74113;46.556;24.570;2024-01-06T00:36:09;97710.58;;;2.18;72.47
84032;BME280;74113;46.556;24.570;2024-01-06T00:38:38;97704.42;;;2.17;72.42
84032;BME280;74113;46.556;24.570;2024-01-06T00:41:06;97701.38;;;2.15;72.49
84032;BME280;74113;46.556;24.570;2024-01-06T00:43:35;97700.17;;;2.15;72.58
84032;BME280;74113;46.556;24.570;2024-01-06T00:46:03;97702.54;;;2.18;72.62
84032;BME280;74113;46.556;24.570;2024-01-06T00:48:31;97704.90;;;2.20;72.71
84032;BME280;74113;46.556;24.570;2024-01-06T00:51:00;97702.33;;;2.20;72.53
84032;BME280;74113;46.556;24.570;2024-01-06T00:53:28;97707.27;;;2.22;72.48
84032;BME280;74113;46.556;24.570;2024-01-06T00:55:57;97713.52;;;2.27;72.22
84032;BME280;74113;46.556;24.570;2024-01-06T00:58:25;97713.64;;;2.30;72.02
84032;BME280;74113;46.556;24.570;2024-01-06T01:00:53;97708.16;;;2.31;72.00
84032;BME280;74113;46.556;24.570;2024-01-06T01:03:22;97703.36;;;2.30;72.17
84032;BME280;74113;46.556;24.570;2024-01-06T01:05:50;97702.70;;;2.30;72.12
84032;BME280;74113;46.556;24.570;2024-01-06T01:08:19;97697.58;;;2.29;72.05
84032;BME280;74113;46.556;24.570;2024-01-06T01:10:47;97692.44;;;2.30;72.28
84032;BME280;74113;46.556;24.570;2024-01-06T01:13:16;97692.21;;;2.32;72.36
84032;BME280;74113;46.556;24.570;2024-01-06T01:15:44;97682.77;;;2.35;72.36
84032;BME280;74113;46.556;24.570;2024-01-06T01:18:13;97680.49;;;2.37;72.54
84032;BME280;74113;46.556;24.570;2024-01-06T01:20:42;97669.35;;;2.38;71.93
84032;BME280;74113;46.556;24.570;2024-01-06T01:23:10;97651.20;;;2.39;72.23
84032;BME280;74113;46.556;24.570;2024-01-06T01:25:39;97646.23;;;2.39;72.33
84032;BME280;74113;46.556;24.570;2024-01-06T01:28:07;97653.60;;;2.39;72.22
84032;BME280;74113;46.556;24.570;2024-01-06T01:30:36;97672.26;;;2.40;72.11
84032;BME280;74113;46.556;24.570;2024-01-06T01:33:04;97674.25;;;2.43;71.94
84032;BME280;74113;46.556;24.570;2024-01-06T01:35:33;97671.44;;;2.47;71.83
84032;BME280;74113;46.556;24.570;2024-01-06T01:38:01;97677.58;;;2.49;71.88
84032;BME280;74113;46.556;24.570;2024-01-06T01:40:31;97679.29;;;2.49;71.92
84032;BME280;74113;46.556;24.570;2024-01-06T01:42:59;97673.62;;;2.50;71.91
84032;BME280;74113;46.556;24.570;2024-01-06T01:45:27;97661.77;;;2.52;71.87
84032;BME280;74113;46.556;24.570;2024-01-06T01:47:56;97651.83;;;2.53;71.81
84032;BME280;74113;46.556;24.570;2024-01-06T01:50:25;97648.15;;;2.57;72.21
84032;BME280;74113;46.556;24.570;2024-01-06T01:52:56;97651.88;;;2.60;72.35
84032;BME280;74113;46.556;24.570;2024-01-06T01:55:24;97652.52;;;2.62;72.22
84032;BME280;74113;46.556;24.570;2024-01-06T01:57:52;97647.34;;;2.65;71.78
84032;BME280;74113;46.556;24.570;2024-01-06T02:00:21;97641.00;;;2.65;71.59
84032;BME280;74113;46.556;24.570;2024-01-06T02:02:53;97637.58;;;2.65;71.92
84032;BME280;74113;46.556;24.570;2024-01-06T02:05:22;97629.37;;;2.64;71.60
84032;BME280;74113;46.556;24.570;2024-01-06T02:07:51;97630.58;;;2.63;71.71
84032;BME280;74113;46.556;24.570;2024-01-06T02:10:19;97632.98;;;2.64;71.57
84032;BME280;74113;46.556;24.570;2024-01-06T02:12:48;97633.98;;;2.63;71.44
84032;BME280;74113;46.556;24.570;2024-01-06T02:15:17;97634.34;;;2.64;71.44
84032;BME280;74113;46.556;24.570;2024-01-06T02:17:45;97634.65;;;2.66;71.82
84032;BME280;74113;46.556;24.570;2024-01-06T02:20:14;97632.04;;;2.68;71.68
84032;BME280;74113;46.556;24.570;2024-01-06T02:22:42;97632.40;;;2.67;71.76
84032;BME280;74113;46.556;24.570;2024-01-06T02:25:11;97632.27;;;2.66;71.71
84032;BME280;74113;46.556;24.570;2024-01-06T02:27:40;97634.15;;;2.65;71.44
84032;BME280;74113;46.556;24.570;2024-01-06T02:30:09;97634.52;;;2.64;71.50
84032;BME280;74113;46.556;24.570;2024-01-06T02:32:38;97630.77;;;2.63;71.16
84032;BME280;74113;46.556;24.570;2024-01-06T02:35:06;97631.52;;;2.59;71.01
84032;BME280;74113;46.556;24.570;2024-01-06T02:37:35;97629.20;;;2.54;71.23
84032;BME280;74113;46.556;24.570;2024-01-06T02:40:04;97625.30;;;2.51;71.10
84032;BME280;74113;46.556;24.570;2024-01-06T02:42:32;97624.35;;;2.48;71.29
84032;BME280;74113;46.556;24.570;2024-01-06T02:45:00;97623.70;;;2.46;71.57
84032;BME280;74113;46.556;24.570;2024-01-06T02:47:29;97621.30;;;2.46;71.68
84032;BME280;74113;46.556;24.570;2024-01-06T02:49:58;97615.82;;;2.46;71.75
84032;BME280;74113;46.556;24.570;2024-01-06T02:52:27;97611.82;;;2.50;71.82
84032;BME280;74113;46.556;24.570;2024-01-06T02:54:55;97610.08;;;2.51;71.56
84032;BME280;74113;46.556;24.570;2024-01-06T02:57:24;97608.35;;;2.52;71.32
84032;BME280;74113;46.556;24.570;2024-01-06T02:59:53;97605.73;;;2.54;71.43
84032;BME280;74113;46.556;24.570;2024-01-06T03:02:22;97606.06;;;2.55;71.17
84032;BME280;74113;46.556;24.570;2024-01-06T03:04:50;97603.98;;;2.56;71.08
84032;BME280;74113;46.556;24.570;2024-01-06T03:07:19;97604.33;;;2.56;71.13
84032;BME280;74113;46.556;24.570;2024-01-06T03:09:47;97602.13;;;2.56;71.08
84032;BME280;74113;46.556;24.570;2024-01-06T03:12:16;97600.73;;;2.57;71.02
84032;BME280;74113;46.556;24.570;2024-01-06T03:14:44;97604.18;;;2.55;71.01
84032;BME280;74113;46.556;24.570;2024-01-06T03:17:12;97595.96;;;2.56;70.95
84032;BME280;74113;46.556;24.570;2024-01-06T03:19:41;97595.55;;;2.59;71.30
84032;BME280;74113;46.556;24.570;2024-01-06T03:22:09;97592.42;;;2.61;71.40
84032;BME280;74113;46.556;24.570;2024-01-06T03:24:38;97590.89;;;2.61;71.40
84032;BME280;74113;46.556;24.570;2024-01-06T03:27:08;97593.98;;;2.61;71.13
84032;BME280;74113;46.556;24.570;2024-01-06T03:29:37;97596.46;;;2.56;71.06
84032;BME280;74113;46.556;24.570;2024-01-06T03:32:05;97589.30;;;2.54;71.14
84032;BME280;74113;46.556;24.570;2024-01-06T03:34:34;97583.45;;;2.56;71.12
84032;BME280;74113;46.556;24.570;2024-01-06T03:37:03;97580.85;;;2.58;71.11
84032;BME280;74113;46.556;24.570;2024-01-06T03:39:31;97580.08;;;2.63;71.03
84032;BME280;74113;46.556;24.570;2024-01-06T03:42:00;97581.66;;;2.70;71.55
84032;BME280;74113;46.556;24.570;2024-01-06T03:44:29;97582.59;;;2.75;70.95
84032;BME280;74113;46.556;24.570;2024-01-06T03:47:00;97579.80;;;2.77;70.91
84032;BME280;74113;46.556;24.570;2024-01-06T03:49:28;97574.41;;;2.82;70.94
84032;BME280;74113;46.556;24.570;2024-01-06T03:51:57;97572.13;;;2.84;70.53
84032;BME280;74113;46.556;24.570;2024-01-06T03:54:26;97570.23;;;2.85;70.42
84032;BME280;74113;46.556;24.570;2024-01-06T03:56:54;97568.20;;;2.84;70.30
84032;BME280;74113;46.556;24.570;2024-01-06T03:59:23;97572.11;;;2.86;70.48
84032;BME280;74113;46.556;24.570;2024-01-06T04:01:51;97569.27;;;2.90;70.29
84032;BME280;74113;46.556;24.570;2024-01-06T04:04:20;97570.09;;;2.93;70.11
84032;BME280;74113;46.556;24.570;2024-01-06T04:06:48;97572.10;;;2.95;70.16
84032;BME280;74113;46.556;24.570;2024-01-06T04:09:17;97578.56;;;2.97;69.70
84032;BME280;74113;46.556;24.570;2024-01-06T04:11:46;97584.55;;;2.98;70.29
84032;BME280;74113;46.556;24.570;2024-01-06T04:14:14;97582.73;;;3.02;70.22
84032;BME280;74113;46.556;24.570;2024-01-06T04:16:42;97584.20;;;3.07;70.73
84032;BME280;74113;46.556;24.570;2024-01-06T04:19:11;97580.73;;;3.09;69.93
84032;BME280;74113;46.556;24.570;2024-01-06T04:21:41;97586.17;;;3.02;69.82
84032;BME280;74113;46.556;24.570;2024-01-06T04:24:09;97585.98;;;2.95;69.95
84032;BME280;74113;46.556;24.570;2024-01-06T04:26:38;97593.72;;;2.93;69.98
84032;BME280;74113;46.556;24.570;2024-01-06T04:29:06;97592.84;;;2.94;70.00
84032;BME280;74113;46.556;24.570;2024-01-06T04:31:34;97591.11;;;2.96;70.04
84032;BME280;74113;46.556;24.570;2024-01-06T04:34:03;97592.55;;;3.00;69.80
84032;BME280;74113;46.556;24.570;2024-01-06T04:36:32;97590.22;;;3.05;69.73
84032;BME280;74113;46.556;24.570;2024-01-06T04:39:01;97579.25;;;3.06;69.62
84032;BME280;74113;46.556;24.570;2024-01-06T04:41:29;97569.44;;;3.07;69.72
84032;BME280;74113;46.556;24.570;2024-01-06T04:43:58;97559.95;;;3.10;69.50
84032;BME280;74113;46.556;24.570;2024-01-06T04:46:26;97553.75;;;3.13;70.00
84032;BME280;74113;46.556;24.570;2024-01-06T04:48:54;97547.92;;;3.21;70.14
84032;BME280;74113;46.556;24.570;2024-01-06T04:51:23;97546.08;;;3.27;69.56
84032;BME280;74113;46.556;24.570;2024-01-06T04:53:51;97546.06;;;3.27;69.12
84032;BME280;74113;46.556;24.570;2024-01-06T04:56:20;97543.87;;;3.26;68.79
84032;BME280;74113;46.556;24.570;2024-01-06T04:58:48;97538.09;;;3.24;68.70
84032;BME280;74113;46.556;24.570;2024-01-06T05:01:16;97535.35;;;3.23;68.84
84032;BME280;74113;46.556;24.570;2024-01-06T05:03:45;97534.34;;;3.22;68.57
84032;BME280;74113;46.556;24.570;2024-01-06T05:06:14;97539.52;;;3.21;68.70
84032;BME280;74113;46.556;24.570;2024-01-06T05:08:42;97544.17;;;3.20;68.67
84032;BME280;74113;46.556;24.570;2024-01-06T05:11:13;97542.45;;;3.21;68.73
84032;BME280;74113;46.556;24.570;2024-01-06T05:13:41;97541.86;;;3.24;68.56
84032;BME280;74113;46.556;24.570;2024-01-06T05:16:09;97548.70;;;3.25;69.42
84032;BME280;74113;46.556;24.570;2024-01-06T05:18:38;97549.44;;;3.30;69.65
84032;BME280;74113;46.556;24.570;2024-01-06T05:21:06;97554.63;;;3.36;69.28
84032;BME280;74113;46.556;24.570;2024-01-06T05:23:35;97555.20;;;3.41;69.33
84032;BME280;74113;46.556;24.570;2024-01-06T05:26:04;97553.08;;;3.44;69.14
84032;BME280;74113;46.556;24.570;2024-01-06T05:28:32;97544.01;;;3.43;68.59
84032;BME280;74113;46.556;24.570;2024-01-06T05:31:00;97540.82;;;3.40;68.82
84032;BME280;74113;46.556;24.570;2024-01-06T05:33:29;97532.29;;;3.38;68.72
84032;BME280;74113;46.556;24.570;2024-01-06T05:35:58;97529.90;;;3.38;68.67
84032;BME280;74113;46.556;24.570;2024-01-06T05:38:26;97538.31;;;3.37;68.54
84032;BME280;74113;46.556;24.570;2024-01-06T05:40:55;97533.33;;;3.38;68.80
84032;BME280;74113;46.556;24.570;2024-01-06T05:43:24;97530.59;;;3.37;68.67
84032;BME280;74113;46.556;24.570;2024-01-06T05:45:52;97532.47;;;3.38;68.74
84032;BME280;74113;46.556;24.570;2024-01-06T05:48:21;97527.32;;;3.38;68.65
84032;BME280;74113;46.556;24.570;2024-01-06T05:50:50;97532.26;;;3.40;68.89
84032;BME280;74113;46.556;24.570;2024-01-06T05:53:18;97531.60;;;3.46;69.47
84032;BME280;74113;46.556;24.570;2024-01-06T05:55:47;97533.67;;;3.53;69.65
84032;BME280;74113;46.556;24.570;2024-01-06T05:58:16;97535.47;;;3.57;68.70
84032;BME280;74113;46.556;24.570;2024-01-06T06:00:44;97533.98;;;3.54;68.49
84032;BME280;74113;46.556;24.570;2024-01-06T06:03:14;97541.84;;;3.56;68.80
84032;BME280;74113;46.556;24.570;2024-01-06T06:05:43;97544.33;;;3.59;68.41
84032;BME280;74113;46.556;24.570;2024-01-06T06:08:13;97539.67;;;3.61;68.24
84032;BME280;74113;46.556;24.570;2024-01-06T06:10:42;97540.48;;;3.63;68.40
84032;BME280;74113;46.556;24.570;2024-01-06T06:13:28;97538.68;;;3.66;68.37
84032;BME280;74113;46.556;24.570;2024-01-06T06:15:57;97541.42;;;3.66;68.28
84032;BME280;74113;46.556;24.570;2024-01-06T06:18:26;97539.91;;;3.65;68.26
84032;BME280;74113;46.556;24.570;2024-01-06T06:20:54;97538.23;;;3.64;68.18
84032;BME280;74113;46.556;24.570;2024-01-06T06:23:23;97534.18;;;3.60;68.17
84032;BME280;74113;46.556;24.570;2024-01-06T06:25:52;97532.65;;;3.60;68.32
84032;BME280;74113;46.556;24.570;2024-01-06T06:28:20;97531.65;;;3.59;68.29
84032;BME280;74113;46.556;24.570;2024-01-06T06:30:48;97526.48;;;3.52;68.38
84032;BME280;74113;46.556;24.570;2024-01-06T06:33:17;97524.27;;;3.52;68.34
84032;BME280;74113;46.556;24.570;2024-01-06T06:35:46;97519.84;;;3.51;68.39
84032;BME280;74113;46.556;24.570;2024-01-06T06:38:14;97521.33;;;3.53;68.94
84032;BME280;74113;46.556;24.570;2024-01-06T06:40:43;97517.61;;;3.51;68.72
84032;BME280;74113;46.556;24.570;2024-01-06T06:43:11;97524.58;;;3.53;68.99
84032;BME280;74113;46.556;24.570;2024-01-06T06:45:39;97521.94;;;3.56;68.71
84032;BME280;74113;46.556;24.570;2024-01-06T06:48:08;97517.91;;;3.60;68.53
84032;BME280;74113;46.556;24.570;2024-01-06T06:50:37;97513.05;;;3.62;68.57
84032;BME280;74113;46.556;24.570;2024-01-06T06:53:07;97511.65;;;3.63;68.56
84032;BME280;74113;46.556;24.570;2024-01-06T06:55:36;97512.06;;;3.60;68.49
84032;BME280;74113;46.556;24.570;2024-01-06T06:58:06;97508.58;;;3.63;68.59
84032;BME280;74113;46.556;24.570;2024-01-06T07:00:35;97505.71;;;3.68;69.00
84032;BME280;74113;46.556;24.570;2024-01-06T07:03:04;97507.77;;;3.75;68.66
84032;BME280;74113;46.556;24.570;2024-01-06T07:05:32;97509.41;;;3.78;68.22
84032;BME280;74113;46.556;24.570;2024-01-06T07:08:02;97509.00;;;3.81;68.09
84032;BME280;74113;46.556;24.570;2024-01-06T07:10:31;97518.12;;;3.87;68.01
84032;BME280;74113;46.556;24.570;2024-01-06T07:12:59;97514.23;;;3.91;68.03
84032;BME280;74113;46.556;24.570;2024-01-06T07:15:28;97511.74;;;3.95;67.70
84032;BME280;74113;46.556;24.570;2024-01-06T07:17:56;97516.30;;;3.99;67.42
84032;BME280;74113;46.556;24.570;2024-01-06T07:20:25;97517.52;;;4.04;67.63
84032;BME280;74113;46.556;24.570;2024-01-06T07:22:53;97511.58;;;4.08;67.19
84032;BME280;74113;46.556;24.570;2024-01-06T07:25:22;97510.63;;;4.12;67.51
84032;BME280;74113;46.556;24.570;2024-01-06T07:27:50;97499.88;;;4.16;67.05
84032;BME280;74113;46.556;24.570;2024-01-06T07:30:22;97503.24;;;4.19;67.43
84032;BME280;74113;46.556;24.570;2024-01-06T07:32:51;97498.77;;;4.19;67.08
84032;BME280;74113;46.556;24.570;2024-01-06T07:35:20;97504.84;;;4.24;67.92
84032;BME280;74113;46.556;24.570;2024-01-06T07:37:49;97492.48;;;4.31;68.06
84032;BME280;74113;46.556;24.570;2024-01-06T07:40:17;97487.05;;;4.35;67.95
84032;BME280;74113;46.556;24.570;2024-01-06T07:42:46;97488.02;;;4.37;67.59
84032;BME280;74113;46.556;24.570;2024-01-06T07:45:15;97489.58;;;4.36;66.75
84032;BME280;74113;46.556;24.570;2024-01-06T07:47:43;97497.10;;;4.38;67.11
84032;BME280;74113;46.556;24.570;2024-01-06T07:50:12;97497.91;;;4.39;66.82
84032;BME280;74113;46.556;24.570;2024-01-06T07:52:41;97501.73;;;4.44;66.87
84032;BME280;74113;46.556;24.570;2024-01-06T07:55:09;97501.66;;;4.47;66.55
84032;BME280;74113;46.556;24.570;2024-01-06T07:57:38;97502.67;;;4.48;66.74
84032;BME280;74113;46.556;24.570;2024-01-06T08:00:07;97501.43;;;4.49;66.31
84032;BME280;74113;46.556;24.570;2024-01-06T08:02:42;97497.42;;;4.51;66.64
84032;BME280;74113;46.556;24.570;2024-01-06T08:05:11;97500.40;;;4.55;66.66
84032;BME280;74113;46.556;24.570;2024-01-06T08:07:40;97496.34;;;4.59;66.69
84032;BME280;74113;46.556;24.570;2024-01-06T08:10:08;97495.55;;;4.63;66.50
84032;BME280;74113;46.556;24.570;2024-01-06T08:12:37;97498.52;;;4.67;66.41
84032;BME280;74113;46.556;24.570;2024-01-06T08:15:07;97497.19;;;4.72;66.00
84032;BME280;74113;46.556;24.570;2024-01-06T08:17:37;97487.13;;;4.76;66.47
84032;BME280;74113;46.556;24.570;2024-01-06T08:20:09;97482.63;;;4.83;66.53
84032;BME280;74113;46.556;24.570;2024-01-06T08:22:38;97483.19;;;4.87;65.88
84032;BME280;74113;46.556;24.570;2024-01-06T08:25:07;97479.77;;;4.92;65.98
84032;BME280;74113;46.556;24.570;2024-01-06T08:27:35;97476.45;;;5.00;65.78
84032;BME280;74113;46.556;24.570;2024-01-06T08:30:05;97475.92;;;5.06;65.59
84032;BME280;74113;46.556;24.570;2024-01-06T08:32:35;97481.48;;;5.10;65.47
84032;BME280;74113;46.556;24.570;2024-01-06T08:35:04;97477.85;;;5.10;65.14
84032;BME280;74113;46.556;24.570;2024-01-06T08:37:33;97471.49;;;5.10;65.34
84032;BME280;74113;46.556;24.570;2024-01-06T08:40:01;97466.70;;;5.10;65.56
84032;BME280;74113;46.556;24.570;2024-01-06T08:42:31;97463.46;;;5.09;65.23
84032;BME280;74113;46.556;24.570;2024-01-06T08:45:00;97463.92;;;5.10;65.38
84032;BME280;74113;46.556;24.570;2024-01-06T08:47:29;97464.57;;;5.12;65.15
84032;BME280;74113;46.556;24.570;2024-01-06T08:49:58;97458.91;;;5.11;65.41
84032;BME280;74113;46.556;24.570;2024-01-06T08:52:26;97458.35;;;5.13;65.60
84032;BME280;74113;46.556;24.570;2024-01-06T08:54:55;97457.25;;;5.21;66.71
84032;BME280;74113;46.556;24.570;2024-01-06T08:57:23;97457.36;;;5.29;66.31
84032;BME280;74113;46.556;24.570;2024-01-06T08:59:52;97455.95;;;5.35;65.67
84032;BME280;74113;46.556;24.570;2024-01-06T09:02:20;97459.80;;;5.39;65.56
84032;BME280;74113;46.556;24.570;2024-01-06T09:04:49;97460.83;;;5.45;65.04
84032;BME280;74113;46.556;24.570;2024-01-06T09:07:18;97457.31;;;5.47;64.52
84032;BME280;74113;46.556;24.570;2024-01-06T09:09:46;97446.36;;;5.50;64.62
84032;BME280;74113;46.556;24.570;2024-01-06T09:12:15;97443.41;;;5.56;63.84
84032;BME280;74113;46.556;24.570;2024-01-06T09:14:44;97440.21;;;5.60;63.65
84032;BME280;74113;46.556;24.570;2024-01-06T09:17:13;97437.40;;;5.66;63.93
84032;BME280;74113;46.556;24.570;2024-01-06T09:19:42;97431.87;;;5.72;63.43
84032;BME280;74113;46.556;24.570;2024-01-06T09:22:10;97432.82;;;5.75;62.98
84032;BME280;74113;46.556;24.570;2024-01-06T09:24:38;97432.14;;;5.80;63.35
84032;BME280;74113;46.556;24.570;2024-01-06T09:27:07;97435.73;;;5.87;63.13
84032;BME280;74113;46.556;24.570;2024-01-06T09:29:35;97433.95;;;5.89;62.62
84032;BME280;74113;46.556;24.570;2024-01-06T09:32:04;97430.75;;;5.97;63.57
84032;BME280;74113;46.556;24.570;2024-01-06T09:34:33;97428.95;;;6.05;62.81
84032;BME280;74113;46.556;24.570;2024-01-06T09:37:06;97425.18;;;6.14;62.60
84032;BME280;74113;46.556;24.570;2024-01-06T09:39:35;97420.23;;;6.17;62.02
84032;BME280;74113;46.556;24.570;2024-01-06T09:42:04;97414.70;;;6.23;61.63
84032;BME280;74113;46.556;24.570;2024-01-06T09:44:33;97410.77;;;6.27;61.28
84032;BME280;74113;46.556;24.570;2024-01-06T09:47:03;97402.39;;;6.30;60.89
84032;BME280;74113;46.556;24.570;2024-01-06T09:49:34;97397.70;;;6.36;60.61
84032;BME280;74113;46.556;24.570;2024-01-06T09:52:13;97396.11;;;6.51;60.69
84032;BME280;74113;46.556;24.570;2024-01-06T09:54:51;97396.48;;;6.64;60.32
84032;BME280;74113;46.556;24.570;2024-01-06T09:57:21;97388.80;;;6.67;60.06
84032;BME280;74113;46.556;24.570;2024-01-06T09:59:49;97382.08;;;6.72;60.35
84032;BME280;74113;46.556;24.570;2024-01-06T10:02:18;97377.70;;;6.78;60.38
84032;BME280;74113;46.556;24.570;2024-01-06T10:04:49;97372.65;;;6.84;60.74
84032;BME280;74113;46.556;24.570;2024-01-06T10:07:17;97366.23;;;6.89;60.80
84032;BME280;74113;46.556;24.570;2024-01-06T10:09:46;97369.08;;;6.96;61.12
84032;BME280;74113;46.556;24.570;2024-01-06T10:12:15;97360.44;;;7.01;60.54
84032;BME280;74113;46.556;24.570;2024-01-06T10:14:44;97358.88;;;7.10;60.91
84032;BME280;74113;46.556;24.570;2024-01-06T10:17:12;97355.36;;;7.19;61.26
84032;BME280;74113;46.556;24.570;2024-01-06T10:19:44;97346.78;;;7.27;61.00
84032;BME280;74113;46.556;24.570;2024-01-06T10:22:13;97345.85;;;7.33;60.42
84032;BME280;74113;46.556;24.570;2024-01-06T10:24:42;97346.62;;;7.40;60.27
84032;BME280;74113;46.556;24.570;2024-01-06T10:27:11;97342.59;;;7.46;60.59
84032;BME280;74113;46.556;24.570;2024-01-06T10:29:40;97339.91;;;7.52;61.08
84032;BME280;74113;46.556;24.570;2024-01-06T10:32:09;97335.82;;;7.55;60.66
84032;BME280;74113;46.556;24.570;2024-01-06T10:34:37;97337.11;;;7.57;61.42
84032;BME280;74113;46.556;24.570;2024-01-06T10:37:06;97336.55;;;7.62;61.19
84032;BME280;74113;46.556;24.570;2024-01-06T10:39:35;97331.18;;;7.67;61.37
84032;BME280;74113;46.556;24.570;2024-01-06T10:42:06;97327.35;;;7.72;61.58
84032;BME280;74113;46.556;24.570;2024-01-06T10:44:36;97322.36;;;7.75;61.06
84032;BME280;74113;46.556;24.570;2024-01-06T10:47:06;97316.41;;;7.81;61.15
84032;BME280;74113;46.556;24.570;2024-01-06T10:49:36;97315.05;;;7.89;60.10
84032;BME280;74113;46.556;24.570;2024-01-06T10:52:05;97311.23;;;7.93;60.12
84032;BME280;74113;46.556;24.570;2024-01-06T10:54:36;97310.14;;;7.98;60.33
84032;BME280;74113;46.556;24.570;2024-01-06T10:57:06;97303.34;;;8.07;60.42
84032;BME280;74113;46.556;24.570;2024-01-06T10:59:36;97294.52;;;8.19;60.19
84032;BME280;74113;46.556;24.570;2024-01-06T11:02:05;97288.52;;;8.30;59.56
84032;BME280;74113;46.556;24.570;2024-01-06T11:04:36;97287.92;;;8.43;60.26
84032;BME280;74113;46.556;24.570;2024-01-06T11:07:05;97284.08;;;8.56;60.29
84032;BME280;74113;46.556;24.570;2024-01-06T11:09:37;97279.59;;;8.63;58.99
84032;BME280;74113;46.556;24.570;2024-01-06T11:12:08;97277.65;;;8.67;59.54
84032;BME280;74113;46.556;24.570;2024-01-06T11:14:37;97280.85;;;8.72;60.02
84032;BME280;74113;46.556;24.570;2024-01-06T11:17:06;97270.27;;;8.77;59.42
84032;BME280;74113;46.556;24.570;2024-01-06T11:24:48;97254.61;;;8.79;57.98
84032;BME280;74113;46.556;24.570;2024-01-06T11:27:25;97251.89;;;8.81;58.79
84032;BME280;74113;46.556;24.570;2024-01-06T11:29:59;97249.95;;;8.86;58.23
84032;BME280;74113;46.556;24.570;2024-01-06T11:32:36;97245.90;;;8.91;58.71
84032;BME280;74113;46.556;24.570;2024-01-06T11:35:10;97245.02;;;8.95;58.87
84032;BME280;74113;46.556;24.570;2024-01-06T11:40:32;97243.31;;;8.98;59.03
84032;BME280;74113;46.556;24.570;2024-01-06T11:43:04;97241.91;;;8.98;59.12
84032;BME280;74113;46.556;24.570;2024-01-06T11:45:38;97238.35;;;9.00;59.05
84032;BME280;74113;46.556;24.570;2024-01-06T11:48:11;97234.94;;;9.03;59.22
84032;BME280;74113;46.556;24.570;2024-01-06T11:50:43;97228.35;;;9.07;58.73
84032;BME280;74113;46.556;24.570;2024-01-06T11:53:11;97225.60;;;9.10;58.93
84032;BME280;74113;46.556;24.570;2024-01-06T11:55:40;97221.23;;;9.14;58.53
84032;BME280;74113;46.556;24.570;2024-01-06T11:58:08;97218.99;;;9.17;58.88
84032;BME280;74113;46.556;24.570;2024-01-06T12:00:37;97217.69;;;9.19;58.64
84032;BME280;74113;46.556;24.570;2024-01-06T12:03:09;97215.79;;;9.19;58.41
84032;BME280;74113;46.556;24.570;2024-01-06T12:05:38;97213.07;;;9.18;58.62
84032;BME280;74113;46.556;24.570;2024-01-06T12:08:06;97214.00;;;9.20;59.48
84032;BME280;74113;46.556;24.570;2024-01-06T12:10:36;97213.57;;;9.22;59.27
84032;BME280;74113;46.556;24.570;2024-01-06T12:13:06;97212.77;;;9.24;59.89
84032;BME280;74113;46.556;24.570;2024-01-06T12:15:41;97209.85;;;9.27;59.83
84032;BME280;74113;46.556;24.570;2024-01-06T12:18:09;97206.42;;;9.29;60.49
84032;BME280;74113;46.556;24.570;2024-01-06T12:20:38;97203.25;;;9.31;60.54
84032;BME280;74113;46.556;24.570;2024-01-06T12:23:07;97203.41;;;9.31;60.03
84032;BME280;74113;46.556;24.570;2024-01-06T12:25:35;97206.33;;;9.31;59.73
84032;BME280;74113;46.556;24.570;2024-01-06T12:28:08;97202.48;;;9.32;59.28
84032;BME280;74113;46.556;24.570;2024-01-06T12:30:38;97200.88;;;9.33;59.07
84032;BME280;74113;46.556;24.570;2024-01-06T12:33:08;97195.42;;;9.35;59.74
84032;BME280;74113;46.556;24.570;2024-01-06T12:35:36;97196.66;;;9.38;59.58
84032;BME280;74113;46.556;24.570;2024-01-06T12:38:05;97195.23;;;9.42;58.84
84032;BME280;74113;46.556;24.570;2024-01-06T12:40:37;97193.92;;;9.47;58.17
84032;BME280;74113;46.556;24.570;2024-01-06T12:43:06;97193.50;;;9.52;58.05
84032;BME280;74113;46.556;24.570;2024-01-06T12:45:35;97190.88;;;9.56;58.13
84032;BME280;74113;46.556;24.570;2024-01-06T12:48:04;97196.85;;;9.58;58.31
84032;BME280;74113;46.556;24.570;2024-01-06T12:50:33;97190.02;;;9.59;58.35
84032;BME280;74113;46.556;24.570;2024-01-06T12:53:01;97185.91;;;9.58;58.34
84032;BME280;74113;46.556;24.570;2024-01-06T12:55:30;97178.80;;;9.58;58.27
84032;BME280;74113;46.556;24.570;2024-01-06T12:57:58;97179.73;;;9.61;57.84
84032;BME280;74113;46.556;24.570;2024-01-06T13:00:30;97180.86;;;9.62;57.78
84032;BME280;74113;46.556;24.570;2024-01-06T13:03:04;97178.77;;;9.62;57.83
84032;BME280;74113;46.556;24.570;2024-01-06T13:05:33;97175.48;;;9.66;57.35
84032;BME280;74113;46.556;24.570;2024-01-06T13:08:02;97180.33;;;9.69;57.23
84032;BME280;74113;46.556;24.570;2024-01-06T13:10:31;97173.66;;;9.70;56.77
84032;BME280;74113;46.556;24.570;2024-01-06T13:13:00;97176.41;;;9.71;56.25
84032;BME280;74113;46.556;24.570;2024-01-06T13:15:28;97179.19;;;9.71;56.96
84032;BME280;74113;46.556;24.570;2024-01-06T13:17:57;97175.36;;;9.71;57.11